createdAt,value
2019-05-07T00:02:22.478Z,86.44
2019-05-07T00:04:52.247Z,86.64
2019-05-07T00:07:22.376Z,86.50
2019-05-07T00:09:52.554Z,86.16
2019-05-07T00:12:22.874Z,85.70
2019-05-07T00:14:59.041Z,85.21
2019-05-07T00:17:22.845Z,84.75
2019-05-07T00:19:52.558Z,86.07
2019-05-07T00:22:22.710Z,86.69
2019-05-07T00:24:52.130Z,86.46
2019-05-07T00:27:22.596Z,86.96
2019-05-07T00:29:52.053Z,87.28
2019-05-07T00:32:22.150Z,87.72
2019-05-07T00:34:54.251Z,87.96
2019-05-07T00:37:24.173Z,88.25
2019-05-07T00:40:03.159Z,88.86
2019-05-07T00:42:35.975Z,88.88
2019-05-07T00:45:20.459Z,88.90
2019-05-07T00:47:46.699Z,88.48
2019-05-07T00:50:18.250Z,88.49
2019-05-07T00:52:46.744Z,88.17
2019-05-07T00:55:15.131Z,87.70
2019-05-07T00:57:43.631Z,87.47
2019-05-07T01:00:13.048Z,88.02
2019-05-07T01:02:43.086Z,87.84
2019-05-07T01:05:12.324Z,88.17
2019-05-07T01:07:41.910Z,88.92
2019-05-07T01:10:12.725Z,89.24
2019-05-07T01:12:42.281Z,90.04
2019-05-07T01:15:12.822Z,90.86
2019-05-07T01:17:42.537Z,91.20
2019-05-07T01:20:12.561Z,90.67
2019-05-07T01:22:42.401Z,90.87
2019-05-07T01:25:12.855Z,90.93
2019-05-07T01:27:42.674Z,92.23
2019-05-07T01:30:12.971Z,92.89
2019-05-07T01:32:57.682Z,93.16
2019-05-07T01:35:33.834Z,93.06
2019-05-07T01:38:03.126Z,93.14
2019-05-07T01:40:32.357Z,93.53
2019-05-07T01:43:02.568Z,93.54
2019-05-07T01:45:43.246Z,92.81
2019-05-07T01:48:04.192Z,92.32
2019-05-07T01:50:32.225Z,91.22
2019-05-07T01:53:00.875Z,91.06
2019-05-07T01:55:29.308Z,90.89
2019-05-07T01:57:57.767Z,91.52
2019-05-07T02:00:26.237Z,91.73
2019-05-07T02:02:56.259Z,91.06
2019-05-07T02:05:32.643Z,90.89
2019-05-07T02:08:03.037Z,91.37
2019-05-07T02:10:49.109Z,91.21
2019-05-07T02:13:17.580Z,90.73
2019-05-07T02:15:57.456Z,90.00
2019-05-07T02:18:16.082Z,89.72
2019-05-07T02:20:44.539Z,90.34
2019-05-07T02:23:13.000Z,91.43
2019-05-07T02:25:42.029Z,91.77
2019-05-07T02:28:12.703Z,91.73
2019-05-07T02:30:44.104Z,91.64
2019-05-07T02:33:13.528Z,90.39
2019-05-07T02:35:43.756Z,90.28
2019-05-07T02:38:13.779Z,90.61
2019-05-07T02:40:46.728Z,90.69
2019-05-07T02:43:15.165Z,92.25
2019-05-07T02:45:53.577Z,93.50
2019-05-07T02:48:23.763Z,93.92
2019-05-07T02:51:06.063Z,94.09
2019-05-07T02:53:38.946Z,94.61
2019-05-07T02:56:07.383Z,95.19
2019-05-07T02:58:35.776Z,94.74
2019-05-07T03:01:05.139Z,95.20
2019-05-07T03:03:33.896Z,95.19
2019-05-07T03:06:03.113Z,95.11
2019-05-07T03:08:33.022Z,95.70
2019-05-07T03:11:03.331Z,95.26
2019-05-07T03:13:33.658Z,94.72
2019-05-07T03:16:03.745Z,94.48
2019-05-07T03:18:33.493Z,93.83
2019-05-07T03:21:03.897Z,94.18
2019-05-07T03:23:36.982Z,93.01
2019-05-07T03:28:53.110Z,91.14
2019-05-07T03:31:36.048Z,91.81
2019-05-07T03:34:16.521Z,91.48
2019-05-07T03:36:56.549Z,92.94
2019-05-07T03:39:24.003Z,93.95
2019-05-07T03:41:53.229Z,94.06
2019-05-07T03:44:25.868Z,94.08
2019-05-07T03:47:02.128Z,94.11
2019-05-07T03:49:34.130Z,97.32
2019-05-07T03:52:04.236Z,97.92
2019-05-07T03:54:34.088Z,100.00
2019-05-07T03:57:10.751Z,100.00
2019-05-07T03:59:34.222Z,97.87
2019-05-07T04:02:03.451Z,96.13
2019-05-07T04:04:33.200Z,99.41
2019-05-07T04:07:03.412Z,97.26
2019-05-07T04:09:33.336Z,98.32
2019-05-07T04:12:03.899Z,98.25
2019-05-07T04:14:34.450Z,98.55
2019-05-07T04:17:14.240Z,100.00
2019-05-07T04:19:33.066Z,99.54
2019-05-07T04:22:04.318Z,98.89
2019-05-07T04:24:45.301Z,99.44
2019-05-07T04:27:15.339Z,100.00
2019-05-07T04:29:43.828Z,99.66
2019-05-07T04:32:14.343Z,93.97
2019-05-07T04:34:53.509Z,92.52
2019-05-07T04:37:24.000Z,90.94
2019-05-07T04:39:54.776Z,89.58
2019-05-07T04:42:24.570Z,88.19
2019-05-07T04:44:54.048Z,88.50
2019-05-07T04:47:34.825Z,87.99
2019-05-07T04:49:53.589Z,89.06
2019-05-07T04:52:33.663Z,89.64
2019-05-07T04:55:04.012Z,89.63
2019-05-07T04:57:33.555Z,89.90
2019-05-07T05:00:03.400Z,90.09
2019-05-07T05:02:36.213Z,89.72
2019-05-07T05:05:05.455Z,87.07
2019-05-07T05:07:33.937Z,86.07
2019-05-07T05:10:07.469Z,85.76
2019-05-07T05:12:35.894Z,85.94
2019-05-07T05:15:05.540Z,86.03
2019-05-07T05:17:47.152Z,85.45
2019-05-07T05:20:07.560Z,85.76
2019-05-07T05:22:42.388Z,86.17
2019-05-07T05:25:12.418Z,85.86
2019-05-07T05:27:42.853Z,85.00
2019-05-07T05:30:14.352Z,84.38
2019-05-07T05:32:42.735Z,83.68
2019-05-07T05:35:12.615Z,82.49
2019-05-07T05:37:42.910Z,80.87
2019-05-07T05:40:14.269Z,80.25
2019-05-07T05:42:56.225Z,79.91
2019-05-07T05:45:33.967Z,78.94
2019-05-07T05:48:07.491Z,78.21
2019-05-07T05:50:34.542Z,78.91
2019-05-07T05:53:21.851Z,79.61
2019-05-07T05:55:52.818Z,78.55
2019-05-07T05:58:24.160Z,77.44
2019-05-07T06:01:02.457Z,75.66
2019-05-07T06:03:32.335Z,74.48
2019-05-07T06:06:21.922Z,73.21
2019-05-07T06:08:57.987Z,71.42
2019-05-07T06:11:36.830Z,70.79
2019-05-07T06:14:18.556Z,71.33
2019-05-07T06:16:48.732Z,70.82
2019-05-07T06:19:18.800Z,71.24
2019-05-07T06:21:48.831Z,70.23
2019-05-07T06:24:18.959Z,68.89
2019-05-07T06:26:47.585Z,68.93
2019-05-07T06:29:15.977Z,68.62
2019-05-07T06:31:46.019Z,67.35
2019-05-07T06:34:14.565Z,67.02
2019-05-07T06:36:42.961Z,65.20
2019-05-07T06:39:15.930Z,64.21
2019-05-07T06:41:57.606Z,64.28
2019-05-07T06:44:32.010Z,63.26
2019-05-07T06:47:02.480Z,62.47
2019-05-07T06:49:32.466Z,62.51
2019-05-07T06:52:03.053Z,61.87
2019-05-07T06:54:32.090Z,61.04
2019-05-07T06:57:02.043Z,62.17
2019-05-07T06:59:34.574Z,61.87
2019-05-07T07:02:22.357Z,61.98
2019-05-07T07:04:52.102Z,61.25
2019-05-07T07:07:30.746Z,58.85
2019-05-07T07:09:57.048Z,58.85
2019-05-07T07:12:27.126Z,54.89
2019-05-07T07:14:58.100Z,54.89
2019-05-07T07:17:25.791Z,53.87
2019-05-07T07:19:54.281Z,52.38
2019-05-07T07:22:22.678Z,52.92
2019-05-07T07:24:53.128Z,50.47
2019-05-07T07:27:22.680Z,51.22
2019-05-07T07:29:53.082Z,50.86
2019-05-07T07:32:27.847Z,50.72
2019-05-07T07:34:58.372Z,51.55
2019-05-07T07:37:32.052Z,51.52
2019-05-07T07:40:08.027Z,50.97
2019-05-07T07:42:36.433Z,51.45
2019-05-07T07:45:16.847Z,51.29
2019-05-07T07:47:46.681Z,51.79
2019-05-07T07:50:16.098Z,51.55
2019-05-07T07:52:44.729Z,50.11
2019-05-07T07:55:15.342Z,49.58
2019-05-07T07:57:48.105Z,48.94
2019-05-07T08:00:34.007Z,48.13
2019-05-07T08:03:04.054Z,47.16
2019-05-07T08:05:32.704Z,46.75
2019-05-07T08:08:02.288Z,47.32
2019-05-07T08:10:32.601Z,47.30
2019-05-07T08:13:02.032Z,46.87
2019-05-07T08:15:32.861Z,46.56
2019-05-07T08:18:02.837Z,44.92
2019-05-07T08:20:32.684Z,44.48
2019-05-07T08:23:03.375Z,44.10
2019-05-07T08:25:52.268Z,43.20
2019-05-07T08:28:23.300Z,43.76
2019-05-07T08:31:03.051Z,42.26
2019-05-07T08:33:33.158Z,42.19
2019-05-07T08:36:14.788Z,42.24
2019-05-07T08:38:55.521Z,41.95
2019-05-07T08:41:27.129Z,42.13
2019-05-07T08:44:14.542Z,41.34
2019-05-07T08:46:44.651Z,41.89
2019-05-07T08:49:14.756Z,42.38
2019-05-07T08:51:43.333Z,41.17
2019-05-07T08:54:12.327Z,39.46
2019-05-07T08:56:42.534Z,38.96
2019-05-07T08:59:12.396Z,39.05
2019-05-07T09:01:43.229Z,39.37
2019-05-07T09:04:13.489Z,38.58
2019-05-07T09:06:43.066Z,39.89
2019-05-07T09:09:14.754Z,38.90
2019-05-07T09:11:43.400Z,38.52
2019-05-07T09:14:12.748Z,37.49
2019-05-07T09:16:42.682Z,37.84
2019-05-07T09:19:12.924Z,37.65
2019-05-07T09:21:42.823Z,37.04
2019-05-07T09:24:12.361Z,36.54
2019-05-07T09:26:54.507Z,35.22
2019-05-07T09:29:24.614Z,35.31
2019-05-07T09:31:54.683Z,35.18
2019-05-07T09:34:24.679Z,34.42
2019-05-07T09:36:54.720Z,33.22
2019-05-07T09:39:23.161Z,33.22
2019-05-07T09:41:52.643Z,33.26
2019-05-07T09:44:22.159Z,32.21
2019-05-07T09:46:52.048Z,34.11
2019-05-07T09:49:22.280Z,34.57
2019-05-07T09:51:51.959Z,35.05
2019-05-07T09:54:20.562Z,35.35
2019-05-07T09:56:49.038Z,35.27
2019-05-07T09:59:17.531Z,34.71
2019-05-07T10:01:45.918Z,33.75
2019-05-07T10:04:14.564Z,32.96
2019-05-07T10:06:43.074Z,34.11
2019-05-07T10:09:12.008Z,31.32
2019-05-07T10:11:54.375Z,31.56
2019-05-07T10:14:22.933Z,31.96
2019-05-07T10:16:55.819Z,31.31
2019-05-07T10:19:24.473Z,31.43
2019-05-07T10:21:53.094Z,31.88
2019-05-07T10:24:22.256Z,33.15
2019-05-07T10:26:53.114Z,33.00
2019-05-07T10:29:22.729Z,32.37
2019-05-07T10:31:52.745Z,33.29
2019-05-07T10:34:22.825Z,32.93
2019-05-07T10:36:52.366Z,32.96
2019-05-07T10:39:22.067Z,34.07
2019-05-07T10:41:50.564Z,35.63
2019-05-07T10:44:22.794Z,34.36
2019-05-07T10:47:08.914Z,34.29
2019-05-07T10:49:48.171Z,32.67
2019-05-07T10:52:16.806Z,33.41
2019-05-07T10:54:56.857Z,34.49
2019-05-07T10:57:15.388Z,34.89
2019-05-07T10:59:43.813Z,34.63
2019-05-07T11:02:16.665Z,34.94
2019-05-07T11:04:45.930Z,34.16
2019-05-07T11:07:14.435Z,34.38
2019-05-07T11:09:42.970Z,34.48
2019-05-07T11:12:12.747Z,35.42
2019-05-07T11:14:41.184Z,36.11
2019-05-07T11:17:27.417Z,35.21
2019-05-07T11:19:55.991Z,35.43
2019-05-07T11:22:24.390Z,35.02
2019-05-07T11:24:52.815Z,35.71
2019-05-07T11:27:22.532Z,35.32
2019-05-07T11:29:51.078Z,36.41
2019-05-07T11:32:21.546Z,36.18
2019-05-07T11:34:49.754Z,37.15
2019-05-07T11:37:18.167Z,35.77
2019-05-07T11:39:46.554Z,34.62
2019-05-07T11:42:22.648Z,34.30
2019-05-07T11:44:55.042Z,33.05
2019-05-07T11:47:31.891Z,33.23
2019-05-07T11:50:18.340Z,32.61
2019-05-07T11:52:48.379Z,33.47
2019-05-07T11:55:16.992Z,33.55
2019-05-07T11:57:45.413Z,32.43
2019-05-07T12:00:19.406Z,32.13
2019-05-07T12:02:47.807Z,32.36
2019-05-07T12:05:16.367Z,31.00
2019-05-07T12:07:44.790Z,30.37
2019-05-07T12:10:13.330Z,30.38
2019-05-07T12:12:43.422Z,31.25
2019-05-07T12:15:12.536Z,31.29
2019-05-07T12:17:42.822Z,31.21
2019-05-07T12:20:12.517Z,31.25
2019-05-07T12:22:47.546Z,31.26
2019-05-07T12:25:18.460Z,31.28
2019-05-07T12:27:49.676Z,30.91
2019-05-07T12:30:37.246Z,31.07
2019-05-07T12:33:19.303Z,30.43
2019-05-07T12:35:47.860Z,30.18
2019-05-07T12:38:16.414Z,31.16
2019-05-07T12:40:45.003Z,30.83
2019-05-07T12:43:13.427Z,31.50
2019-05-07T12:45:42.174Z,31.81
2019-05-07T12:48:12.146Z,31.31
2019-05-07T12:50:43.036Z,31.24
2019-05-07T12:53:28.750Z,31.34
2019-05-07T12:55:58.766Z,31.69
2019-05-07T12:58:27.312Z,29.79
2019-05-07T13:00:59.751Z,30.45
2019-05-07T13:03:32.473Z,30.56
2019-05-07T13:06:02.502Z,29.84
2019-05-07T13:08:32.932Z,29.43
2019-05-07T13:11:03.059Z,29.48
2019-05-07T13:13:31.984Z,28.84
2019-05-07T13:16:02.742Z,29.82
2019-05-07T13:18:31.237Z,30.61
2019-05-07T13:20:59.728Z,30.35
2019-05-07T13:23:28.119Z,30.40
2019-05-07T13:25:56.650Z,30.94
2019-05-07T13:28:26.105Z,30.16
2019-05-07T13:30:54.493Z,29.71
2019-05-07T13:33:23.521Z,29.49
2019-05-07T13:35:52.661Z,30.51
2019-05-07T13:38:39.055Z,30.09
2019-05-07T13:41:18.853Z,30.28
2019-05-07T13:44:02.960Z,29.97
2019-05-07T13:46:33.321Z,30.64
2019-05-07T13:49:02.220Z,29.63
2019-05-07T13:51:33.571Z,30.03
2019-05-07T13:54:02.058Z,29.78
2019-05-07T13:56:32.639Z,30.13
2019-05-07T13:59:04.653Z,29.49
2019-05-07T14:01:39.293Z,29.88
2019-05-07T14:04:07.752Z,30.33
2019-05-07T14:06:39.087Z,29.21
2019-05-07T14:09:11.124Z,29.06
2019-05-07T14:11:41.955Z,29.21
2019-05-07T14:14:09.783Z,28.33
2019-05-07T14:16:38.285Z,28.75
2019-05-07T14:19:06.762Z,29.28
2019-05-07T14:21:35.319Z,28.77
2019-05-07T14:24:03.855Z,29.84
2019-05-07T14:26:32.592Z,30.48
2019-05-07T14:29:01.910Z,29.80
2019-05-07T14:31:33.493Z,30.39
2019-05-07T14:34:07.810Z,30.12
2019-05-07T14:36:42.514Z,29.70
2019-05-07T14:39:10.719Z,29.70
2019-05-07T14:41:39.449Z,30.14
2019-05-07T14:44:09.528Z,28.62
2019-05-07T14:46:50.184Z,28.21
2019-05-07T14:49:12.102Z,27.43
2019-05-07T14:51:47.072Z,27.12
2019-05-07T14:54:18.229Z,26.48
2019-05-07T14:56:45.931Z,27.94
2019-05-07T14:59:14.410Z,28.72
2019-05-07T15:01:43.121Z,27.89
2019-05-07T15:04:12.903Z,29.42
2019-05-07T15:06:41.389Z,30.99
2019-05-07T15:09:12.109Z,29.20
2019-05-07T15:11:42.468Z,32.87
2019-05-07T15:14:12.068Z,32.21
2019-05-07T15:16:42.692Z,32.04
2019-05-07T15:19:12.446Z,29.88
2019-05-07T15:21:42.623Z,31.03
2019-05-07T15:24:14.483Z,30.22
2019-05-07T15:26:43.042Z,27.98
2019-05-07T15:29:12.763Z,29.94
2019-05-07T15:31:42.890Z,29.20
2019-05-07T15:34:12.385Z,28.98
2019-05-07T15:36:42.331Z,28.41
2019-05-07T15:39:13.288Z,29.33
2019-05-07T15:41:42.455Z,29.83
2019-05-07T15:44:11.982Z,32.01
2019-05-07T15:46:42.643Z,29.90
2019-05-07T15:49:12.570Z,28.35
2019-05-07T15:51:41.889Z,29.52
2019-05-07T15:54:12.667Z,30.77
2019-05-07T15:56:40.676Z,28.97
2019-05-07T15:59:12.773Z,29.28
2019-05-07T16:01:41.963Z,30.33
2019-05-07T16:04:20.056Z,29.53
2019-05-07T16:06:42.473Z,31.53
2019-05-07T16:09:12.974Z,31.00
2019-05-07T16:11:43.078Z,30.43
2019-05-07T16:14:14.679Z,30.73
2019-05-07T16:16:44.929Z,31.62
2019-05-07T16:19:14.968Z,31.28
2019-05-07T16:21:43.366Z,32.46
2019-05-07T16:24:12.238Z,30.59
2019-05-07T16:26:41.858Z,30.74
2019-05-07T16:29:13.027Z,34.39
2019-05-07T16:31:40.708Z,32.08
2019-05-07T16:34:09.232Z,33.17
2019-05-07T16:36:37.719Z,32.85
2019-05-07T16:39:07.348Z,32.76
2019-05-07T16:41:35.844Z,32.33
2019-05-07T16:44:05.137Z,32.33
2019-05-07T16:46:33.621Z,32.65
2019-05-07T16:49:02.432Z,31.92
2019-05-07T16:51:32.882Z,31.91
2019-05-07T16:54:03.257Z,32.23
2019-05-07T16:56:33.179Z,33.14
2019-05-07T16:59:09.804Z,32.38
2019-05-07T17:01:38.370Z,33.42
2019-05-07T17:04:08.067Z,33.12
2019-05-07T17:06:36.568Z,33.15
2019-05-07T17:09:13.729Z,33.09
2019-05-07T17:11:43.735Z,33.25
2019-05-07T17:14:12.893Z,33.52
2019-05-07T17:16:44.728Z,34.51
2019-05-07T17:19:14.505Z,34.52
2019-05-07T17:21:43.225Z,34.80
2019-05-07T17:24:12.013Z,35.31
2019-05-07T17:26:42.345Z,35.72
2019-05-07T17:29:12.050Z,35.98
2019-05-07T17:31:42.415Z,36.25
2019-05-07T17:34:11.802Z,36.40
2019-05-07T17:36:42.174Z,36.55
2019-05-07T17:39:12.216Z,36.91
2019-05-07T17:41:42.694Z,37.14
2019-05-07T17:44:11.892Z,37.63
2019-05-07T17:46:42.793Z,37.79
2019-05-07T17:49:12.003Z,38.24
2019-05-07T17:51:46.112Z,38.22
2019-05-07T17:54:14.582Z,38.62
2019-05-07T17:56:43.632Z,38.98
2019-05-07T17:59:12.454Z,39.42
2019-05-07T18:01:54.434Z,39.81
2019-05-07T18:04:22.943Z,39.34
2019-05-07T18:06:52.205Z,39.85
2019-05-07T18:09:22.598Z,40.14
2019-05-07T18:11:52.218Z,40.62
2019-05-07T18:14:22.850Z,41.27
2019-05-07T18:16:58.468Z,41.96
2019-05-07T18:19:28.672Z,42.84
2019-05-07T18:21:57.377Z,43.83
2019-05-07T18:24:25.878Z,44.41
2019-05-07T18:26:54.358Z,44.82
2019-05-07T18:29:22.782Z,45.19
2019-05-07T18:31:52.936Z,46.20
2019-05-07T18:34:21.368Z,46.32
2019-05-07T18:36:49.914Z,45.95
2019-05-07T18:39:20.355Z,46.56
2019-05-07T18:41:48.486Z,47.07
2019-05-07T18:44:16.891Z,47.38
2019-05-07T18:46:45.745Z,48.15
2019-05-07T18:49:14.239Z,48.14
2019-05-07T18:51:42.799Z,49.30
2019-05-07T18:54:12.023Z,52.14
2019-05-07T18:56:42.083Z,47.95
2019-05-07T18:59:11.198Z,49.21
2019-05-07T19:01:42.183Z,49.21
2019-05-07T19:04:12.698Z,49.53
2019-05-07T19:06:42.458Z,50.19
2019-05-07T19:09:11.138Z,53.25
2019-05-07T19:11:39.707Z,55.92
2019-05-07T19:14:08.167Z,56.83
2019-05-07T19:16:36.745Z,57.08
2019-05-07T19:19:05.363Z,57.66
2019-05-07T19:21:33.898Z,55.70
2019-05-07T19:24:02.474Z,54.66
2019-05-07T19:26:31.018Z,52.78
2019-05-07T19:28:59.675Z,52.78
2019-05-07T19:31:28.116Z,53.37
2019-05-07T19:33:56.661Z,53.76
2019-05-07T19:36:25.335Z,53.79
2019-05-07T19:38:53.768Z,57.09
2019-05-07T19:41:22.180Z,57.97
2019-05-07T19:43:52.633Z,57.92
2019-05-07T19:46:22.692Z,59.11
2019-05-07T19:48:52.036Z,59.35
2019-05-07T19:51:20.601Z,59.32
2019-05-07T19:53:49.012Z,59.49
2019-05-07T19:56:24.648Z,60.03
2019-05-07T19:58:53.119Z,60.42
2019-05-07T20:03:37.428Z,61.45
2019-05-07T20:06:05.936Z,61.78
2019-05-07T20:08:34.441Z,61.94
2019-05-07T20:11:22.419Z,62.66
2019-05-07T20:13:52.415Z,63.00
2019-05-07T20:16:22.923Z,63.43
2019-05-07T20:18:52.388Z,63.91
2019-05-07T20:21:22.831Z,64.41
2019-05-07T20:23:52.658Z,64.53
2019-05-07T20:26:23.090Z,64.99
2019-05-07T20:28:52.574Z,65.55
2019-05-07T20:31:22.615Z,66.21
2019-05-07T20:33:53.083Z,66.59
2019-05-07T20:36:21.783Z,66.90
2019-05-07T20:38:52.121Z,66.74
2019-05-07T20:41:20.400Z,67.00
2019-05-07T20:43:48.997Z,67.62
2019-05-07T20:46:17.573Z,68.05
2019-05-07T20:48:46.000Z,68.48
2019-05-07T20:51:14.492Z,68.36
2019-05-07T20:53:56.424Z,68.73
2019-05-07T20:56:32.386Z,69.12
2019-05-07T20:59:02.890Z,69.21
2019-05-07T21:01:32.885Z,69.35
2019-05-07T21:04:02.065Z,69.76
2019-05-07T21:06:32.217Z,69.57
2019-05-07T21:09:00.963Z,69.21
2019-05-07T21:11:29.459Z,69.11
2019-05-07T21:13:57.940Z,69.23
2019-05-07T21:16:26.367Z,69.34
2019-05-07T21:18:55.089Z,69.39
2019-05-07T21:21:23.637Z,69.94
2019-05-07T21:23:52.831Z,69.98
2019-05-07T21:26:22.496Z,70.05
2019-05-07T21:28:52.893Z,70.31
2019-05-07T21:31:22.768Z,70.46
2019-05-07T21:33:52.386Z,70.46
2019-05-07T21:36:22.896Z,70.33
2019-05-07T21:38:51.825Z,70.02
2019-05-07T21:41:22.693Z,70.09
2019-05-07T21:43:52.644Z,69.83
2019-05-07T21:46:22.215Z,68.89
2019-05-07T21:48:51.810Z,68.92
2019-05-07T21:51:22.849Z,68.79
2019-05-07T21:54:09.268Z,69.49
2019-05-07T21:56:42.226Z,71.09
2019-05-07T21:59:12.673Z,71.21
2019-05-07T22:01:43.685Z,71.34
2019-05-07T22:04:12.714Z,71.77
2019-05-07T22:06:42.832Z,71.64
2019-05-07T22:09:12.833Z,72.05
2019-05-07T22:11:42.753Z,71.99
2019-05-07T22:14:12.891Z,71.99
2019-05-07T22:16:41.966Z,71.55
2019-05-07T22:19:12.184Z,72.50
2019-05-07T22:21:43.086Z,72.86
2019-05-07T22:24:13.009Z,72.53
2019-05-07T22:26:42.046Z,71.12
2019-05-07T22:29:12.545Z,69.67
2019-05-07T22:31:58.556Z,68.91
2019-05-07T22:34:31.306Z,67.29
2019-05-07T22:36:59.831Z,67.79
2019-05-07T22:39:28.316Z,70.53
2019-05-07T22:41:56.703Z,71.62
2019-05-07T22:44:26.343Z,72.33
2019-05-07T22:46:55.202Z,72.22
2019-05-07T22:49:23.673Z,72.14
2019-05-07T22:51:54.761Z,72.50
2019-05-07T22:54:23.659Z,72.38
2019-05-07T22:57:03.222Z,72.78
2019-05-07T22:59:32.812Z,73.33
2019-05-07T23:02:03.151Z,73.41
2019-05-07T23:04:32.560Z,72.90
2019-05-07T23:07:02.223Z,72.68
2019-05-07T23:09:30.928Z,73.31
2019-05-07T23:11:59.312Z,73.37
2019-05-07T23:14:27.869Z,73.46
2019-05-07T23:16:56.471Z,74.25
2019-05-07T23:19:25.132Z,73.44
2019-05-07T23:21:53.714Z,74.09
2019-05-07T23:24:24.741Z,74.42
2019-05-07T23:26:53.683Z,74.49
2019-05-07T23:29:22.739Z,74.32
2019-05-07T23:31:52.962Z,73.08
2019-05-07T23:34:22.025Z,71.36
2019-05-07T23:36:52.996Z,71.22
2019-05-07T23:39:22.642Z,71.16
2019-05-07T23:41:55.639Z,71.46
2019-05-07T23:44:24.088Z,71.63
2019-05-07T23:46:52.643Z,72.14
2019-05-07T23:49:23.247Z,72.42
2019-05-07T23:51:52.985Z,72.81
2019-05-07T23:54:22.990Z,73.12
2019-05-07T23:57:04.957Z,73.86
2019-05-07T23:59:22.356Z,73.82
